Time;durP1;ratioP1;P1;durP2;ratioP2;P2;SDS_P1;SDS_P2;PMS_P1;PMS_P2;Temp;Humidity;BMP_temperature;BMP_pressure;BME280_temperature;BME280_humidity;BME280_pressure;Samples;Min_cycle;Max_cycle;Signal;HPM_P1;HPM_P2
2024/04/24 00:00:50;;;;;;;14.68;10.15;;;;;;;5.00;100.00;100288.22;5182750;27;20086;-89
2024/04/24 00:03:22;;;;;;;13.70;9.32;;;;;;;4.98;100.00;100283.03;5212098;27;20018;-86
2024/04/24 00:05:52;;;;;;;12.70;9.80;;;;;;;4.94;100.00;100284.72;5209441;27;20016;-86
2024/04/24 00:08:24;;;;;;;13.93;10.30;;;;;;;4.96;100.00;100285.59;5186362;27;20072;-92
2024/04/24 00:10:56;;;;;;;15.57;9.75;;;;;;;4.89;100.00;100275.16;5208961;27;20020;-89
2024/04/24 00:13:24;;;;;;;16.38;10.98;;;;;;;4.79;100.00;100275.06;5215007;27;20016;-89
2024/04/24 00:15:56;;;;;;;18.02;11.70;;;;;;;4.74;100.00;100268.13;5186262;27;20443;-90
2024/04/24 00:18:25;;;;;;;17.65;12.55;;;;;;;4.79;100.00;100263.84;5188710;27;20069;-86
2024/04/24 00:20:57;;;;;;;16.27;12.35;;;;;;;4.85;100.00;100261.31;5183997;27;20007;-88
2024/04/24 00:23:26;;;;;;;13.75;11.30;;;;;;;4.74;100.00;100260.34;5184777;27;20055;-91
2024/04/24 00:26:04;;;;;;;17.35;11.35;;;;;;;4.77;100.00;100257.75;5182117;27;20004;-90
2024/04/24 00:28:34;;;;;;;14.82;11.07;;;;;;;4.78;100.00;100250.03;5208220;27;20052;-88
2024/04/24 00:31:03;;;;;;;15.93;10.70;;;;;;;4.83;100.00;100242.25;5188338;27;20063;-86
2024/04/24 00:33:38;;;;;;;16.98;11.98;;;;;;;4.87;100.00;100238.81;5216416;27;20060;-88
2024/04/24 00:36:09;;;;;;;14.50;11.38;;;;;;;4.78;100.00;100234.47;5181861;27;20012;-89
2024/04/24 00:38:40;;;;;;;13.77;11.23;;;;;;;4.77;100.00;100230.13;5211261;27;20018;-87
2024/04/24 00:41:09;;;;;;;14.45;11.38;;;;;;;4.74;100.00;100229.22;5183736;27;20454;-87
2024/04/24 00:43:43;;;;;;;15.95;11.23;;;;;;;4.70;100.00;100235.25;5177646;27;20008;-86
2024/04/24 00:46:14;;;;;;;16.05;10.43;;;;;;;4.66;100.00;100230.91;5187538;27;20572;-87
2024/04/24 00:48:46;;;;;;;14.55;10.48;;;;;;;4.66;100.00;100217.94;5193707;27;20027;-90
2024/04/24 00:51:16;;;;;;;13.02;10.55;;;;;;;4.71;100.00;100217.09;5216955;27;20015;-91
2024/04/24 00:53:45;;;;;;;13.65;11.23;;;;;;;4.67;100.00;100217.94;5184880;27;20015;-87
2024/04/24 00:56:19;;;;;;;13.82;10.50;;;;;;;4.74;100.00;100204.16;5173514;27;20019;-90
2024/04/24 00:58:50;;;;;;;15.30;11.38;;;;;;;4.74;100.00;100198.97;5152719;27;20031;-90
2024/04/24 01:01:25;;;;;;;15.68;12.48;;;;;;;4.66;100.00;100195.44;5157503;27;20019;-87
2024/04/24 01:04:03;;;;;;;13.65;9.77;;;;;;;4.68;100.00;100192.88;5210657;27;20009;-87
2024/04/24 01:06:51;;;;;;;13.80;9.95;;;;;;;4.63;100.00;100193.69;5154536;27;20472;-87
2024/04/24 01:09:21;;;;;;;12.98;9.98;;;;;;;4.65;100.00;100193.72;5185012;27;19996;-90
2024/04/24 01:12:13;;;;;;;13.25;9.25;;;;;;;4.64;100.00;100194.56;5161341;27;20016;-88
2024/04/24 01:14:47;;;;;;;13.43;9.02;;;;;;;4.68;100.00;100195.47;5189803;27;20064;-86
2024/04/24 01:17:24;;;;;;;12.50;9.20;;;;;;;4.82;100.00;100188.66;5190086;27;20083;-88
2024/04/24 01:20:19;;;;;;;11.38;9.48;;;;;;;4.84;100.00;100179.16;5179108;27;20004;-90
2024/04/24 01:23:11;;;;;;;16.02;11.18;;;;;;;4.86;100.00;100184.34;5181218;27;20000;-90
2024/04/24 01:26:58;;;;;;;13.90;9.27;;;;;;;4.86;100.00;100166.19;5214209;27;20052;-86
2024/04/24 01:30:10;;;;;;;12.90;8.88;;;;;;;4.81;100.00;100173.97;5161588;27;20053;-88
2024/04/24 01:33:00;;;;;;;14.50;7.80;;;;;;;4.75;100.00;100168.72;5186750;27;20009;-87
2024/04/24 01:35:36;;;;;;;14.23;8.23;;;;;;;4.70;100.00;100165.25;5180707;27;20000;-85
2024/04/24 01:38:28;;;;;;;10.13;8.30;;;;;;;4.68;100.00;100156.56;5203593;27;20019;-87
2024/04/24 01:41:05;;;;;;;11.55;8.80;;;;;;;4.69;100.00;100161.75;5184000;27;20065;-89
2024/04/24 01:43:58;;;;;;;11.83;8.03;;;;;;;4.71;100.00;100159.22;5183037;27;20179;-89
2024/04/24 01:46:37;;;;;;;10.75;7.55;;;;;;;4.68;100.00;100156.56;5187189;27;20570;-87
2024/04/24 01:49:08;;;;;;;11.88;8.85;;;;;;;4.70;100.00;100152.28;5180146;27;20053;-89
2024/04/24 01:51:40;;;;;;;13.63;8.68;;;;;;;4.60;100.00;100157.41;5175670;27;20008;-90
2024/04/24 01:54:21;;;;;;;9.93;7.55;;;;;;;4.52;100.00;100155.59;5187752;27;20052;-87
2024/04/24 01:56:58;;;;;;;11.30;7.57;;;;;;;4.47;100.00;100148.66;5162281;27;20414;-91
2024/04/24 01:59:29;;;;;;;10.90;8.93;;;;;;;4.52;100.00;100147.81;5130286;27;20051;-90
2024/04/24 02:02:03;;;;;;;9.77;7.20;;;;;;;4.53;100.00;100149.56;5177598;27;20023;-86
2024/04/24 02:04:43;;;;;;;;;;;;;;;4.52;100.00;100140.91;5157351;27;20039;-87
2024/04/24 02:07:11;;;;;;;9.82;6.93;;;;;;;4.54;100.00;100133.16;5202467;27;19935;-86
2024/04/24 02:09:43;;;;;;;13.48;8.07;;;;;;;4.57;100.00;100128.84;5186228;27;20085;-88
2024/04/24 02:12:16;;;;;;;12.40;8.45;;;;;;;4.56;100.00;100123.66;5153061;27;20008;-88
2024/04/24 02:14:48;;;;;;;11.65;7.68;;;;;;;4.59;100.00;100126.28;5178761;27;20012;-90
2024/04/24 02:17:17;;;;;;;13.75;7.78;;;;;;;4.44;100.00;100125.28;5204327;27;20023;-90
2024/04/24 02:19:45;;;;;;;13.52;8.10;;;;;;;4.44;100.00;100122.69;5172879;27;20984;-92
2024/04/24 02:22:13;;;;;;;10.80;7.75;;;;;;;4.38;100.00;100116.59;5181527;27;20008;-90
2024/04/24 02:27:28;;;;;;;;;;;;;;;4.32;100.00;100117.44;5208338;27;20065;-92
2024/04/24 02:29:59;;;;;;;14.48;7.25;;;;;;;4.35;100.00;100121.78;5179894;27;20264;-89
2024/04/24 02:32:31;;;;;;;10.70;7.32;;;;;;;4.41;100.00;100120.09;5179451;27;20018;-91
2024/04/24 02:34:59;;;;;;;10.85;6.65;;;;;;;4.42;100.00;100110.59;5178177;27;20007;-87
2024/04/24 02:37:28;;;;;;;13.80;8.10;;;;;;;4.32;100.00;100090.66;5179404;27;20012;-90
2024/04/24 02:39:59;;;;;;;9.27;6.82;;;;;;;4.37;100.00;100096.72;5159266;27;20027;-90
2024/04/24 02:42:27;;;;;;;7.28;5.93;;;;;;;4.44;100.00;100088.16;5200218;27;20008;-92
2024/04/24 02:44:59;;;;;;;9.93;5.72;;;;;;;4.33;100.00;100090.66;5154693;27;20119;-89
2024/04/24 02:47:27;;;;;;;8.35;4.88;;;;;;;4.36;100.00;100085.50;5204757;27;20048;-86
2024/04/24 02:49:56;;;;;;;7.45;5.20;;;;;;;4.44;100.00;100078.63;5149536;27;20015;-89
2024/04/24 02:52:24;;;;;;;7.97;5.53;;;;;;;4.41;100.00;100086.41;5158401;27;20024;-91
2024/04/24 02:54:52;;;;;;;10.63;4.82;;;;;;;4.34;100.00;100088.94;5182463;27;20007;-89
2024/04/24 02:57:21;;;;;;;8.20;5.40;;;;;;;4.40;100.00;100074.28;5208331;27;20018;-88
2024/04/24 02:59:57;;;;;;;9.68;5.85;;;;;;;4.36;100.00;100069.94;5190941;27;20043;-90
2024/04/24 03:02:25;;;;;;;7.07;5.05;;;;;;;4.33;100.00;100072.53;5196143;27;20008;-90
2024/04/24 03:04:57;;;;;;;12.48;5.50;;;;;;;4.24;100.00;100082.84;5190374;27;20026;-88
2024/04/24 03:07:25;;;;;;;8.07;5.18;;;;;;;4.17;100.00;100068.94;5180727;27;20012;-92
2024/04/24 03:09:56;;;;;;;9.07;5.05;;;;;;;4.13;100.00;100067.19;5182934;27;20016;-90
2024/04/24 03:12:30;;;;;;;9.90;4.78;;;;;;;4.13;100.00;100067.19;5194237;27;20010;-88
2024/04/24 03:14:58;;;;;;;12.80;5.22;;;;;;;4.07;100.00;100064.56;5189103;27;20475;-91
2024/04/24 03:17:27;;;;;;;11.18;4.80;;;;;;;4.08;100.00;100058.50;5188789;27;20050;-90
2024/04/24 03:19:55;;;;;;;8.57;4.88;;;;;;;4.10;100.00;100055.06;5187985;27;20004;-92
2024/04/24 03:22:26;;;;;;;9.15;5.78;;;;;;;4.13;100.00;100060.31;5193728;27;20014;-90
2024/04/24 03:24:54;;;;;;;8.88;5.85;;;;;;;4.10;100.00;100059.41;5213073;27;20023;-91
2024/04/24 03:27:23;;;;;;;13.10;6.05;;;;;;;4.11;100.00;100051.63;5196393;27;20018;-90
2024/04/24 03:29:51;;;;;;;5.70;5.07;;;;;;;4.11;100.00;100061.13;5155577;27;20035;-86
2024/04/24 03:32:20;;;;;;;10.35;5.13;;;;;;;4.12;100.00;100052.53;5207463;27;20020;-88
2024/04/24 03:34:48;;;;;;;9.27;4.50;;;;;;;4.16;100.00;100053.38;5182405;27;20012;-89
2024/04/24 03:37:17;;;;;;;9.52;4.82;;;;;;;4.14;100.00;100050.78;5211312;27;20215;-88
2024/04/24 03:39:45;;;;;;;7.78;5.45;;;;;;;4.18;100.00;100044.78;5215338;27;20030;-89
2024/04/24 03:42:19;;;;;;;8.05;4.53;;;;;;;4.19;100.00;100043.94;5177873;27;20012;-88
2024/04/24 03:44:49;;;;;;;8.35;5.00;;;;;;;4.20;100.00;100037.00;5185491;27;20012;-90
2024/04/24 03:47:20;;;;;;;11.82;5.45;;;;;;;4.19;100.00;100033.56;5189681;27;20169;-92
2024/04/24 03:49:49;;;;;;;8.13;4.88;;;;;;;4.24;100.00;100031.03;5214959;27;20071;-91
2024/04/24 03:52:19;;;;;;;12.57;5.13;;;;;;;4.28;100.00;100030.19;5221434;27;20007;-87
2024/04/24 03:54:47;;;;;;;10.50;4.82;;;;;;;4.24;100.00;100028.44;5175016;27;20012;-87
2024/04/24 03:57:19;;;;;;;7.63;3.70;;;;;;;4.24;100.00;100026.69;5141656;27;20031;-89
2024/04/24 03:59:58;;;;;;;7.13;4.18;;;;;;;4.23;100.00;100017.19;5132261;27;20026;-90
2024/04/24 04:02:29;;;;;;;8.25;5.07;;;;;;;4.24;100.00;100018.91;5186856;27;20013;-88
2024/04/24 04:04:57;;;;;;;7.47;4.28;;;;;;;4.27;100.00;100011.16;5149959;27;20031;-89
2024/04/24 04:07:25;;;;;;;6.22;4.40;;;;;;;4.19;100.00;100015.44;5149697;27;20012;-89
2024/04/24 04:09:54;;;;;;;6.82;4.32;;;;;;;4.23;100.00;100006.81;5154131;27;20012;-89
2024/04/24 04:12:22;;;;;;;10.40;5.75;;;;;;;4.24;100.00;100015.47;5122172;27;20016;-88
2024/04/24 04:14:54;;;;;;;9.77;5.40;;;;;;;4.31;100.00;100019.81;5152834;27;20104;-87
2024/04/24 04:17:22;;;;;;;9.38;5.00;;;;;;;4.32;100.00;100018.13;5183768;27;20015;-88
2024/04/24 04:20:03;;;;;;;11.30;5.55;;;;;;;4.33;100.00;100014.63;5152403;27;20599;-87
2024/04/24 04:22:31;;;;;;;10.88;4.60;;;;;;;4.38;100.00;100016.44;5158101;27;20034;-87
2024/04/24 04:25:06;;;;;;;9.00;4.88;;;;;;;4.42;100.00;100013.00;5154895;27;20012;-87
2024/04/24 04:27:44;;;;;;;9.52;4.38;;;;;;;4.38;100.00;100003.47;5151203;27;20418;-89
2024/04/24 04:30:14;;;;;;;8.45;4.72;;;;;;;4.34;100.00;100004.31;5174106;27;20087;-90
2024/04/24 04:32:43;;;;;;;8.43;4.47;;;;;;;4.37;100.00;99998.25;5121895;27;20028;-89
2024/04/24 04:35:14;;;;;;;6.28;4.45;;;;;;;4.44;100.00;100000.03;5156455;27;20447;-89
2024/04/24 04:37:43;;;;;;;9.77;5.35;;;;;;;4.38;100.00;99990.50;5178305;27;20023;-88
2024/04/24 04:40:14;;;;;;;5.35;4.35;;;;;;;4.33;100.00;99994.78;5153599;27;20232;-88
2024/04/24 04:42:42;;;;;;;7.63;4.43;;;;;;;4.41;100.00;99989.66;5162000;27;20023;-88
2024/04/24 04:45:11;;;;;;;7.55;4.93;;;;;;;4.36;100.00;99997.41;5154727;27;20016;-89
2024/04/24 04:47:39;;;;;;;10.48;4.78;;;;;;;4.35;100.00;99999.97;5146623;27;20017;-89
2024/04/24 04:50:19;;;;;;;11.02;4.45;;;;;;;4.39;100.00;99996.53;5152218;27;20728;-88
2024/04/24 04:52:50;;;;;;;13.20;4.35;;;;;;;4.36;100.00;99994.81;5171461;27;20004;-87
2024/04/24 04:55:19;;;;;;;6.53;4.55;;;;;;;4.37;100.00;99998.25;5159362;27;20024;-88
2024/04/24 04:57:51;;;;;;;6.30;4.13;;;;;;;4.31;100.00;99988.72;5182913;27;20015;-87
2024/04/24 05:00:23;;;;;;;5.93;4.03;;;;;;;4.35;100.00;99992.22;5220114;27;20433;-89
2024/04/24 05:02:51;;;;;;;10.23;4.30;;;;;;;4.41;100.00;99990.50;5186275;27;20023;-89
2024/04/24 05:05:23;;;;;;;8.93;4.03;;;;;;;4.49;100.00;99982.78;5185392;27;20039;-89
2024/04/24 05:07:54;;;;;;;12.15;4.60;;;;;;;4.47;100.00;99984.47;5184229;27;20026;-87
2024/04/24 05:10:23;;;;;;;6.57;4.28;;;;;;;4.56;100.00;99981.97;5212714;27;20022;-89
2024/04/24 05:12:51;;;;;;;10.18;3.97;;;;;;;4.58;100.00;99980.22;5157845;27;20011;-89
2024/04/24 05:15:20;;;;;;;10.35;4.60;;;;;;;4.65;100.00;99978.53;5216075;27;20022;-88
2024/04/24 05:17:51;;;;;;;9.85;3.88;;;;;;;4.60;100.00;99975.94;5166207;27;20016;-88
2024/04/24 05:20:29;;;;;;;7.95;3.67;;;;;;;4.60;100.00;99985.41;5208566;27;20052;-88
2024/04/24 05:23:04;;;;;;;9.75;3.85;;;;;;;4.51;100.00;99969.81;5188664;27;20059;-85
2024/04/24 05:25:33;;;;;;;9.30;3.85;;;;;;;4.52;100.00;99968.97;5197322;27;20015;-89
2024/04/24 05:30:52;;;;;;;12.02;4.80;;;;;;;4.66;100.00;99958.69;5184242;27;20026;-90
2024/04/24 05:33:21;;;;;;;10.13;4.57;;;;;;;4.55;100.00;99956.00;5201096;27;20022;-92
2024/04/24 05:35:52;;;;;;;7.97;4.18;;;;;;;4.67;100.00;99960.38;5206688;27;20012;-88
2024/04/24 05:38:23;;;;;;;7.22;3.53;;;;;;;4.68;100.00;99950.03;5174867;27;20019;-88
2024/04/24 05:40:51;;;;;;;7.32;3.70;;;;;;;4.71;100.00;99954.38;5181304;27;20016;-89
2024/04/24 05:43:22;;;;;;;5.40;3.22;;;;;;;4.92;100.00;99945.78;5174710;27;20458;-88
2024/04/24 05:45:52;;;;;;;11.93;4.88;;;;;;;4.88;100.00;99954.44;5185028;27;20020;-87
2024/04/24 05:48:29;;;;;;;7.70;3.28;;;;;;;4.90;100.00;99940.59;5204819;27;20011;-89
2024/04/24 05:51:01;;;;;;;6.22;3.83;;;;;;;5.05;100.00;99942.34;5176516;27;20101;-86
2024/04/24 05:53:31;;;;;;;4.25;2.53;;;;;;;4.99;100.00;99939.75;5174212;27;20026;-87
2024/04/24 05:56:00;;;;;;;5.07;2.33;;;;;;;5.09;100.00;99948.44;5181463;27;20449;-85
2024/04/24 05:58:29;;;;;;;6.70;2.72;;;;;;;5.12;100.00;99941.53;5141170;27;20444;-89
2024/04/24 06:03:50;;;;;;;8.35;2.20;;;;;;;4.95;100.00;99945.78;5181575;27;20034;-89
2024/04/24 06:06:18;;;;;;;4.00;1.77;;;;;;;4.89;100.00;99945.75;5122170;27;20019;-92
2024/04/24 06:08:50;;;;;;;8.30;2.60;;;;;;;4.77;100.00;99939.69;5183252;27;20016;-89
2024/04/24 06:11:21;;;;;;;10.52;3.38;;;;;;;4.93;100.00;99943.19;5188789;27;20020;-91
2024/04/24 06:16:45;;;;;;;5.68;2.60;;;;;;;4.92;100.00;99950.97;5138154;27;20870;-91
2024/04/24 06:19:30;;;;;;;8.75;3.70;;;;;;;4.83;100.00;99940.59;5100784;27;20020;-90
2024/04/24 06:22:05;;;;;;;7.78;3.08;;;;;;;4.95;100.00;99938.91;5177894;27;20004;-88
2024/04/24 06:24:35;;;;;;;6.03;2.17;;;;;;;4.88;100.00;99939.72;5163810;27;20012;-89
2024/04/24 06:27:05;;;;;;;5.60;2.20;;;;;;;4.91;100.00;99933.69;5127154;27;20020;-90
2024/04/24 06:29:35;;;;;;;6.90;2.20;;;;;;;4.93;100.00;99937.16;5113032;27;20023;-88
2024/04/24 06:32:08;;;;;;;9.20;4.38;;;;;;;4.99;100.00;99931.97;5149354;27;20031;-89
2024/04/24 06:34:37;;;;;;;6.57;2.75;;;;;;;5.19;100.00;99938.91;5140754;27;20438;-89
2024/04/24 06:37:07;;;;;;;7.15;2.20;;;;;;;5.33;100.00;99932.00;5147177;27;20020;-89
2024/04/24 06:39:38;;;;;;;6.63;3.25;;;;;;;5.31;100.00;99928.56;5123792;27;20064;-89
2024/04/24 06:42:10;;;;;;;6.47;3.40;;;;;;;5.30;100.00;99926.81;5151580;27;20475;-91
2024/04/24 06:44:40;;;;;;;10.98;3.15;;;;;;;5.24;100.00;99929.41;5122325;27;20492;-89
2024/04/24 06:47:09;;;;;;;4.65;2.63;;;;;;;5.11;100.00;99919.03;5151594;27;20441;-89
2024/04/24 06:49:39;;;;;;;11.48;5.70;;;;;;;5.22;100.00;99920.78;5171587;27;20016;-89
2024/04/24 06:52:11;;;;;;;6.40;2.40;;;;;;;5.25;100.00;99920.75;5166020;27;20012;-90
2024/04/24 06:54:43;;;;;;;2.95;2.03;;;;;;;5.21;100.00;99924.22;5141491;27;20016;-90
2024/04/24 06:57:14;;;;;;;9.55;2.70;;;;;;;5.18;100.00;99929.41;5172869;27;20016;-91
2024/04/24 06:59:45;;;;;;;14.82;3.55;;;;;;;5.07;100.00;99921.59;5127356;27;20017;-89
2024/04/24 07:02:18;;;;;;;;;;;;;;;5.09;100.00;99925.94;5186891;27;20059;-90
2024/04/24 07:04:52;;;;;;;12.20;2.13;;;;;;;5.18;100.00;99922.50;5166472;27;20173;-90
2024/04/24 07:07:22;;;;;;;5.13;2.22;;;;;;;5.26;100.00;99914.72;5194510;27;20023;-89
2024/04/24 07:09:59;;;;;;;11.32;3.70;;;;;;;5.49;100.00;99909.53;5183603;27;20031;-89
2024/04/24 07:12:28;;;;;;;6.65;2.25;;;;;;;5.42;100.00;99906.09;5211233;27;20008;-90
2024/04/24 07:14:56;;;;;;;7.75;2.75;;;;;;;5.33;100.00;99900.00;5178627;27;20022;-89
2024/04/24 07:17:25;;;;;;;3.25;1.63;;;;;;;5.30;100.00;99906.91;5183343;27;20015;-91
2024/04/24 07:19:54;;;;;;;5.63;1.73;;;;;;;5.25;100.00;99902.59;5195108;27;20022;-89
2024/04/24 07:22:24;;;;;;;8.73;3.05;;;;;;;5.28;100.00;99897.44;5167639;27;20021;-88
2024/04/24 07:24:57;;;;;;;8.55;2.00;;;;;;;5.28;100.00;99903.47;5225362;27;20123;-90
2024/04/24 07:27:26;;;;;;;7.72;2.58;;;;;;;5.26;100.00;99904.34;5226162;27;20072;-91
2024/04/24 07:32:44;;;;;;;8.45;2.47;;;;;;;5.21;100.00;99903.47;5209250;27;20016;-90
2024/04/24 07:35:16;;;;;;;4.07;1.55;;;;;;;5.13;100.00;99895.69;5182980;27;20008;-89
2024/04/24 07:37:47;;;;;;;10.00;2.33;;;;;;;5.26;100.00;99894.81;5183397;27;20472;-88
2024/04/24 07:40:25;;;;;;;5.57;1.52;;;;;;;5.30;100.00;99886.16;5190781;27;20230;-91
2024/04/24 07:42:56;;;;;;;7.30;1.90;;;;;;;5.47;100.00;99886.19;5216215;27;20010;-90
2024/04/24 07:45:24;;;;;;;12.73;1.88;;;;;;;5.66;100.00;99888.75;5209668;27;20019;-91
2024/04/24 07:47:57;;;;;;;7.28;2.13;;;;;;;5.82;99.86;99867.97;5192445;27;20021;-90
2024/04/24 07:50:38;;;;;;;5.60;2.10;;;;;;;5.81;98.92;99880.06;5212788;27;20012;-88
2024/04/24 07:53:11;;;;;;;4.50;1.52;;;;;;;5.57;97.77;99880.97;5192730;27;20020;-87
2024/04/24 07:55:40;;;;;;;6.45;1.40;;;;;;;5.54;99.12;99879.25;5187897;27;20027;-89
2024/04/24 07:58:09;;;;;;;7.75;1.58;;;;;;;5.39;100.00;99885.31;5185511;27;20217;-90
2024/04/24 08:00:42;;;;;;;2.95;1.05;;;;;;;5.52;100.00;99886.16;5188408;22;20009;-90
2024/04/24 08:03:16;;;;;;;4.38;1.40;;;;;;;5.39;100.00;99881.84;5188271;27;20015;-90
2024/04/24 08:05:53;;;;;;;6.43;1.75;;;;;;;5.32;100.00;99883.59;5165301;27;20008;-91
2024/04/24 08:08:28;;;;;;;6.85;1.17;;;;;;;5.38;100.00;99882.72;5175560;27;20049;-89
2024/04/24 08:11:00;;;;;;;5.45;1.50;;;;;;;5.53;100.00;99882.72;5152886;27;20123;-88
2024/04/24 08:13:30;;;;;;;3.90;0.95;;;;;;;5.50;100.00;99884.44;5153782;27;20075;-89
2024/04/24 08:16:00;;;;;;;9.23;1.88;;;;;;;5.38;100.00;99882.72;5144591;27;20008;-89
2024/04/24 08:21:12;;;;;;;7.10;1.50;;;;;;;5.24;100.00;99874.91;5186553;27;20017;-91
2024/04/24 08:23:42;;;;;;;3.13;0.80;;;;;;;5.21;100.00;99885.31;5148489;27;20023;-90
2024/04/24 08:26:16;;;;;;;6.60;1.13;;;;;;;5.13;100.00;99885.28;5134771;27;20585;-91
2024/04/24 08:28:46;;;;;;;2.15;1.05;;;;;;;5.19;100.00;99889.63;5210058;22;20026;-88
2024/04/24 08:31:14;;;;;;;2.35;0.73;;;;;;;5.23;100.00;99889.63;5183208;27;20021;-88
2024/04/24 08:33:43;;;;;;;4.82;0.90;;;;;;;5.19;100.00;99887.03;5166600;27;20028;-86
2024/04/24 08:36:14;;;;;;;4.45;0.82;;;;;;;5.23;100.00;99886.19;5215648;27;20008;-88
2024/04/24 08:38:42;;;;;;;2.65;0.65;;;;;;;5.21;100.00;99883.56;5176981;27;20031;-88
2024/04/24 08:41:13;;;;;;;6.30;0.93;;;;;;;5.28;100.00;99890.50;5164124;27;20019;-89
2024/04/24 08:43:46;;;;;;;4.65;0.93;;;;;;;5.14;100.00;99893.06;5225589;27;20007;-88
2024/04/24 08:46:15;;;;;;;4.43;1.45;;;;;;;5.26;100.00;99888.78;5176548;27;20379;-86
2024/04/24 08:48:45;;;;;;;3.70;2.53;;;;;;;5.30;100.00;99880.97;5172151;27;20832;-88
2024/04/24 08:51:15;;;;;;;1.33;0.80;;;;;;;5.45;100.00;99887.06;5169113;27;20008;-87
2024/04/24 08:53:54;;;;;;;4.70;1.35;;;;;;;5.57;100.00;99883.56;5162795;27;20097;-87
2024/04/24 08:56:29;;;;;;;3.55;1.05;;;;;;;5.67;100.00;99874.03;5159550;27;20352;-89
2024/04/24 08:59:02;;;;;;;2.88;1.30;;;;;;;6.15;100.00;99877.41;5163251;27;20994;-87
2024/04/24 09:01:34;;;;;;;3.97;1.13;;;;;;;6.50;100.00;99872.94;5180253;27;20087;-86
2024/04/24 09:04:08;;;;;;;3.72;0.77;;;;;;;6.55;97.58;99866.84;5153674;27;20036;-87
2024/04/24 09:06:37;;;;;;;2.17;1.13;;;;;;;6.84;94.81;99860.59;5135117;27;20008;-87
2024/04/24 09:09:06;;;;;;;2.17;0.95;;;;;;;7.10;93.72;99860.44;5235498;27;20019;-87
2024/04/24 09:11:37;;;;;;;1.02;0.90;;;;;;;7.41;92.09;99859.31;5180631;27;20022;-87
2024/04/24 09:14:15;;;;;;;4.03;1.15;;;;;;;7.42;90.91;99861.06;5187437;27;20010;-88
2024/04/24 09:16:44;;;;;;;3.15;1.00;;;;;;;7.24;90.95;99856.88;5258669;27;20007;-87
2024/04/24 09:19:13;;;;;;;5.35;1.40;;;;;;;6.97;92.07;99850.97;5208127;27;20011;-87
2024/04/24 09:21:42;;;;;;;4.50;1.85;;;;;;;7.12;92.01;99850.03;5208390;27;20075;-88
2024/04/24 09:24:16;;;;;;;3.50;0.60;;;;;;;6.77;91.95;99851.13;5204983;27;20025;-88
2024/04/24 09:26:45;;;;;;;1.52;0.88;;;;;;;6.55;92.39;99846.03;5158863;27;20102;-88
2024/04/24 09:29:15;;;;;;;1.88;1.20;;;;;;;6.65;93.31;99835.59;5181265;27;20061;-87
2024/04/24 09:31:44;;;;;;;1.77;0.93;;;;;;;6.68;93.03;99841.63;5212779;27;20010;-87
2024/04/24 09:34:13;;;;;;;2.80;0.85;;;;;;;6.31;92.87;99840.97;5208364;27;20031;-86
2024/04/24 09:36:48;;;;;;;5.18;0.80;;;;;;;6.33;92.33;99837.47;5212250;27;20022;-87
2024/04/24 09:39:17;;;;;;;2.83;1.08;;;;;;;6.35;91.87;99835.75;5215040;27;20016;-87
2024/04/24 09:41:52;;;;;;;2.38;1.15;;;;;;;6.59;91.70;99839.09;5191412;27;20010;-86
2024/04/24 09:44:28;;;;;;;1.45;0.90;;;;;;;7.49;86.73;99831.47;5209548;27;20101;-87
2024/04/24 09:46:57;;;;;;;1.67;0.55;;;;;;;9.20;72.55;99832.78;5244362;27;20025;-88
2024/04/24 09:49:26;;;;;;;2.78;0.77;;;;;;;8.87;71.86;99835.88;5212200;27;20061;-88
2024/04/24 09:51:58;;;;;;;3.00;1.15;;;;;;;8.58;74.48;99831.97;5210557;27;20030;-86
2024/04/24 09:54:26;;;;;;;3.95;1.08;;;;;;;8.28;73.79;99830.59;5233082;27;20018;-87
2024/04/24 09:56:59;;;;;;;0.50;0.50;;;;;;;8.21;73.42;99834.16;5204862;27;20369;-87
2024/04/24 09:59:32;;;;;;;1.15;0.68;;;;;;;7.82;73.94;99826.78;5207410;27;20025;-88
2024/04/24 10:02:08;;;;;;;2.88;0.52;;;;;;;7.70;73.88;99832.13;5233888;27;20027;-87
2024/04/24 10:04:43;;;;;;;2.38;0.82;;;;;;;7.44;74.11;99831.53;5203870;27;20026;-85
2024/04/24 10:07:19;;;;;;;3.25;0.70;;;;;;;7.29;75.41;99840.31;5230199;27;20542;-87
2024/04/24 10:09:51;;;;;;;1.33;1.03;;;;;;;7.30;76.60;99836.00;5179394;27;20464;-87
2024/04/24 10:12:36;;;;;;;2.33;1.10;;;;;;;7.34;77.00;99827.28;5233364;27;20836;-86
2024/04/24 10:15:11;;;;;;;3.20;1.40;;;;;;;7.80;75.85;99823.34;5210721;27;20044;-87
2024/04/24 10:17:41;;;;;;;1.95;0.68;;;;;;;8.56;74.40;99819.81;5194882;27;20522;-86
2024/04/24 10:20:12;;;;;;;3.50;0.98;;;;;;;9.07;70.71;99826.88;5235845;27;20019;-87
2024/04/24 10:22:44;;;;;;;1.30;0.98;;;;;;;8.96;67.25;99819.22;5145175;27;20418;-89
2024/04/24 10:25:14;;;;;;;1.52;0.60;;;;;;;8.34;67.61;99825.28;5190296;27;20762;-87
2024/04/24 10:27:49;;;;;;;3.03;1.00;;;;;;;8.41;68.93;99823.47;5186222;27;20011;-87
2024/04/24 10:30:19;;;;;;;2.58;1.00;;;;;;;8.41;68.87;99816.50;5207960;27;20022;-86
2024/04/24 10:32:47;;;;;;;2.95;0.93;;;;;;;8.35;69.93;99810.53;5206779;27;20026;-86
2024/04/24 10:35:18;;;;;;;2.42;1.67;;;;;;;8.57;69.16;99819.78;5203974;27;20086;-86
2024/04/24 10:37:51;;;;;;;1.23;1.10;;;;;;;8.84;67.01;99809.84;5181183;27;20093;-86
2024/04/24 10:40:19;;;;;;;1.60;1.27;;;;;;;8.88;66.90;99814.13;5201484;27;20011;-87
2024/04/24 10:42:48;;;;;;;2.13;1.42;;;;;;;9.16;65.11;99800.63;5178809;27;20030;-86
2024/04/24 10:45:18;;;;;;;5.28;2.10;;;;;;;9.09;64.18;99797.25;5210463;27;20006;-86
2024/04/24 10:47:46;;;;;;;2.70;1.33;;;;;;;8.85;65.06;99793.31;5210037;27;20023;-87
2024/04/24 10:50:17;;;;;;;4.88;1.30;;;;;;;9.01;64.94;99799.13;5205066;27;20010;-87
2024/04/24 10:52:50;;;;;;;1.90;0.98;;;;;;;9.21;64.89;99790.97;5215486;27;20134;-87
2024/04/24 10:57:59;;;;;;;1.27;1.08;;;;;;;8.42;67.63;99797.38;5162311;27;20010;-86
2024/04/24 11:00:32;;;;;;;2.50;0.90;;;;;;;8.51;67.89;99801.59;5239864;27;20354;-86
2024/04/24 11:03:01;;;;;;;1.40;0.90;;;;;;;8.67;66.48;99786.63;5214446;27;20101;-88
2024/04/24 11:05:34;;;;;;;1.50;0.98;;;;;;;8.40;67.63;99787.84;5209334;27;20250;-87
2024/04/24 11:08:06;;;;;;;1.63;1.10;;;;;;;8.37;67.68;99785.25;5231798;27;20471;-85
2024/04/24 11:10:35;;;;;;;1.45;1.30;;;;;;;8.58;67.22;99781.53;5231537;27;20012;-85
2024/04/24 11:13:14;;;;;;;1.85;1.30;;;;;;;9.19;66.24;99777.09;5206771;27;20011;-84
2024/04/24 11:15:43;;;;;;;2.15;1.15;;;;;;;9.93;63.03;99766.97;5262079;27;20043;-86
2024/04/24 11:18:13;;;;;;;2.55;1.73;;;;;;;9.33;64.09;99757.69;5261570;27;20474;-85
2024/04/24 11:20:43;;;;;;;1.20;1.10;;;;;;;9.14;65.32;99770.19;5206096;27;20022;-84
2024/04/24 11:23:11;;;;;;;4.10;1.33;;;;;;;9.21;65.97;99770.06;5215616;27;20078;-84
2024/04/24 11:25:50;;;;;;;7.18;1.40;;;;;;;9.02;66.70;99763.44;5209382;27;20022;-84
2024/04/24 11:28:21;;;;;;;1.40;1.30;;;;;;;8.93;67.30;99772.31;5191964;27;20007;-86
2024/04/24 11:30:50;;;;;;;2.72;1.23;;;;;;;9.18;66.07;99758.84;5177950;27;20031;-87
2024/04/24 11:33:20;;;;;;;2.75;0.80;;;;;;;9.36;65.01;99760.22;5174139;27;20000;-85
2024/04/24 11:35:48;;;;;;;2.58;0.63;;;;;;;9.26;65.02;99759.56;5200428;27;20014;-85
2024/04/24 11:38:17;;;;;;;3.78;0.93;;;;;;;9.39;64.47;99755.81;5173663;27;20019;-85
2024/04/24 11:40:45;;;;;;;3.30;0.80;;;;;;;10.19;62.42;99742.88;5170793;27;20019;-84
2024/04/24 11:43:14;;;;;;;3.50;1.70;;;;;;;10.99;59.44;99744.53;5176900;27;20008;-87
2024/04/24 11:45:42;;;;;;;2.95;1.13;;;;;;;13.38;54.88;99733.94;5233503;27;20023;-88
2024/04/24 11:48:12;;;;;;;5.93;1.45;;;;;;;14.04;50.41;99723.63;5179154;27;20015;-87
2024/04/24 11:50:37;;;;;;;1.60;0.95;;;;;;;13.73;49.77;99726.56;5195962;27;20099;-86
2024/04/24 11:53:07;;;;;;;3.08;0.68;;;;;;;14.67;49.63;99720.31;5191835;27;20028;-88
2024/04/24 11:55:37;;;;;;;3.30;1.27;;;;;;;14.21;47.15;99715.06;5185097;27;20059;-88
2024/04/24 11:58:14;;;;;;;4.00;1.60;;;;;;;14.58;47.75;99712.75;5192453;27;20550;-89
2024/04/24 12:00:43;;;;;;;10.75;2.25;;;;;;;16.41;46.16;99716.16;5168328;27;20145;-86
2024/04/24 12:03:09;;;;;;;3.75;1.77;;;;;;;15.96;45.29;99712.16;5178187;27;20018;-86
2024/04/24 12:05:38;;;;;;;2.90;0.90;;;;;;;16.10;44.32;99719.41;5175558;27;20024;-87
2024/04/24 12:08:10;;;;;;;2.38;1.38;;;;;;;14.01;47.54;99707.94;5172757;27;20026;-87
2024/04/24 12:10:39;;;;;;;2.28;0.70;;;;;;;13.23;49.29;99707.25;5174872;27;20019;-85